sensor_id;sensor_type;location;lat;lon;timestamp;P1;durP1;ratioP1;P2;durP2;ratioP2
15667;SDS011;7934;48.710;9.024;2023-11-21T00:01:31;6.47;;;1.87;;
15667;SDS011;7934;48.710;9.024;2023-11-21T00:04:12;4.67;;;1.80;;
15667;SDS011;7934;48.710;9.024;2023-11-21T00:06:40;7.57;;;1.97;;
15667;SDS011;7934;48.710;9.024;2023-11-21T00:09:14;4.27;;;2.00;;
15667;SDS011;7934;48.710;9.024;2023-11-21T00:11:43;4.83;;;2.00;;
15667;SDS011;7934;48.710;9.024;2023-11-21T00:14:11;4.57;;;2.30;;
15667;SDS011;7934;48.710;9.024;2023-11-21T00:16:41;13.73;;;2.43;;
15667;SDS011;7934;48.710;9.024;2023-11-21T00:19:08;7.23;;;2.07;;
15667;SDS011;7934;48.710;9.024;2023-11-21T00:21:36;7.93;;;2.30;;
15667;SDS011;7934;48.710;9.024;2023-11-21T00:24:05;9.33;;;2.73;;
15667;SDS011;7934;48.710;9.024;2023-11-21T00:26:48;17.80;;;3.10;;
15667;SDS011;7934;48.710;9.024;2023-11-21T00:29:16;11.23;;;2.70;;
15667;SDS011;7934;48.710;9.024;2023-11-21T00:31:43;4.23;;;2.30;;
15667;SDS011;7934;48.710;9.024;2023-11-21T00:34:11;9.40;;;3.10;;
15667;SDS011;7934;48.710;9.024;2023-11-21T00:36:38;7.37;;;3.03;;
15667;SDS011;7934;48.710;9.024;2023-11-21T00:39:07;7.17;;;2.77;;
15667;SDS011;7934;48.710;9.024;2023-11-21T00:41:36;14.23;;;3.20;;
15667;SDS011;7934;48.710;9.024;2023-11-21T00:44:06;9.57;;;2.87;;
15667;SDS011;7934;48.710;9.024;2023-11-21T00:46:33;5.50;;;2.50;;
15667;SDS011;7934;48.710;9.024;2023-11-21T00:49:02;10.47;;;2.80;;
15667;SDS011;7934;48.710;9.024;2023-11-21T00:51:29;8.17;;;2.60;;
15667;SDS011;7934;48.710;9.024;2023-11-21T00:53:57;8.70;;;2.57;;
15667;SDS011;7934;48.710;9.024;2023-11-21T00:56:24;5.10;;;2.33;;
15667;SDS011;7934;48.710;9.024;2023-11-21T00:58:56;10.63;;;3.20;;
15667;SDS011;7934;48.710;9.024;2023-11-21T01:01:25;9.17;;;2.30;;
15667;SDS011;7934;48.710;9.024;2023-11-21T01:03:52;10.40;;;2.37;;
15667;SDS011;7934;48.710;9.024;2023-11-21T01:06:20;12.83;;;2.57;;
15667;SDS011;7934;48.710;9.024;2023-11-21T01:08:47;5.73;;;2.17;;
15667;SDS011;7934;48.710;9.024;2023-11-21T01:11:15;4.30;;;2.40;;
15667;SDS011;7934;48.710;9.024;2023-11-21T01:13:42;5.07;;;2.20;;
15667;SDS011;7934;48.710;9.024;2023-11-21T01:16:10;6.10;;;2.60;;
15667;SDS011;7934;48.710;9.024;2023-11-21T01:18:40;10.47;;;2.10;;
15667;SDS011;7934;48.710;9.024;2023-11-21T01:21:07;6.30;;;2.13;;
15667;SDS011;7934;48.710;9.024;2023-11-21T01:23:42;7.17;;;2.03;;
15667;SDS011;7934;48.710;9.024;2023-11-21T01:26:10;4.60;;;2.20;;
15667;SDS011;7934;48.710;9.024;2023-11-21T01:28:38;5.97;;;2.20;;
15667;SDS011;7934;48.710;9.024;2023-11-21T01:31:06;5.27;;;2.10;;
15667;SDS011;7934;48.710;9.024;2023-11-21T01:33:33;16.40;;;2.40;;
15667;SDS011;7934;48.710;9.024;2023-11-21T01:36:03;3.20;;;2.20;;
15667;SDS011;7934;48.710;9.024;2023-11-21T01:38:31;4.07;;;1.87;;
15667;SDS011;7934;48.710;9.024;2023-11-21T01:40:58;4.00;;;2.00;;
15667;SDS011;7934;48.710;9.024;2023-11-21T01:43:30;8.40;;;2.60;;
15667;SDS011;7934;48.710;9.024;2023-11-21T01:45:59;4.80;;;1.80;;
15667;SDS011;7934;48.710;9.024;2023-11-21T01:48:32;10.10;;;2.30;;
15667;SDS011;7934;48.710;9.024;2023-11-21T01:51:00;2.50;;;2.30;;
15667;SDS011;7934;48.710;9.024;2023-11-21T01:53:30;5.17;;;2.10;;
15667;SDS011;7934;48.710;9.024;2023-11-21T01:55:58;6.53;;;2.10;;
15667;SDS011;7934;48.710;9.024;2023-11-21T01:58:25;4.83;;;2.10;;
15667;SDS011;7934;48.710;9.024;2023-11-21T02:00:53;7.47;;;2.57;;
15667;SDS011;7934;48.710;9.024;2023-11-21T02:03:20;3.77;;;2.37;;
15667;SDS011;7934;48.710;9.024;2023-11-21T02:05:48;7.27;;;2.50;;
15667;SDS011;7934;48.710;9.024;2023-11-21T02:08:15;4.10;;;1.93;;
15667;SDS011;7934;48.710;9.024;2023-11-21T02:10:46;4.90;;;1.87;;
15667;SDS011;7934;48.710;9.024;2023-11-21T02:13:14;12.63;;;2.03;;
15667;SDS011;7934;48.710;9.024;2023-11-21T02:15:42;2.97;;;1.67;;
15667;SDS011;7934;48.710;9.024;2023-11-21T02:18:09;6.53;;;2.10;;
15667;SDS011;7934;48.710;9.024;2023-11-21T02:20:37;6.17;;;1.97;;
15667;SDS011;7934;48.710;9.024;2023-11-21T02:23:11;5.57;;;1.60;;
15667;SDS011;7934;48.710;9.024;2023-11-21T02:25:39;3.20;;;1.47;;
15667;SDS011;7934;48.710;9.024;2023-11-21T02:28:07;9.93;;;1.87;;
15667;SDS011;7934;48.710;9.024;2023-11-21T02:30:39;3.37;;;1.50;;
15667;SDS011;7934;48.710;9.024;2023-11-21T02:33:07;6.63;;;1.57;;
15667;SDS011;7934;48.710;9.024;2023-11-21T02:35:37;3.40;;;1.60;;
15667;SDS011;7934;48.710;9.024;2023-11-21T02:38:05;2.67;;;1.20;;
15667;SDS011;7934;48.710;9.024;2023-11-21T02:40:34;4.67;;;1.60;;
15667;SDS011;7934;48.710;9.024;2023-11-21T02:43:05;4.77;;;1.77;;
15667;SDS011;7934;48.710;9.024;2023-11-21T02:45:32;2.10;;;1.30;;
15667;SDS011;7934;48.710;9.024;2023-11-21T02:48:01;4.03;;;1.57;;
15667;SDS011;7934;48.710;9.024;2023-11-21T02:50:31;2.67;;;1.07;;
15667;SDS011;7934;48.710;9.024;2023-11-21T02:53:00;2.50;;;1.37;;
15667;SDS011;7934;48.710;9.024;2023-11-21T02:55:28;3.47;;;0.97;;
15667;SDS011;7934;48.710;9.024;2023-11-21T02:57:57;1.97;;;1.27;;
15667;SDS011;7934;48.710;9.024;2023-11-21T03:00:24;4.47;;;1.00;;
15667;SDS011;7934;48.710;9.024;2023-11-21T03:02:52;1.03;;;1.03;;
15667;SDS011;7934;48.710;9.024;2023-11-21T03:05:20;2.63;;;1.23;;
15667;SDS011;7934;48.710;9.024;2023-11-21T03:07:48;3.53;;;1.47;;
15667;SDS011;7934;48.710;9.024;2023-11-21T03:10:15;3.50;;;1.20;;
15667;SDS011;7934;48.710;9.024;2023-11-21T03:12:43;2.73;;;1.30;;
15667;SDS011;7934;48.710;9.024;2023-11-21T03:15:14;4.00;;;1.40;;
15667;SDS011;7934;48.710;9.024;2023-11-21T03:17:41;1.37;;;1.33;;
15667;SDS011;7934;48.710;9.024;2023-11-21T03:20:10;2.80;;;1.40;;
15667;SDS011;7934;48.710;9.024;2023-11-21T03:22:39;4.87;;;1.20;;
15667;SDS011;7934;48.710;9.024;2023-11-21T03:25:07;1.03;;;1.03;;
15667;SDS011;7934;48.710;9.024;2023-11-21T03:27:36;3.13;;;1.33;;
15667;SDS011;7934;48.710;9.024;2023-11-21T03:30:05;3.80;;;1.20;;
15667;SDS011;7934;48.710;9.024;2023-11-21T03:32:34;3.17;;;1.20;;
15667;SDS011;7934;48.710;9.024;2023-11-21T03:35:02;2.63;;;1.00;;
15667;SDS011;7934;48.710;9.024;2023-11-21T03:37:31;1.00;;;0.90;;
15667;SDS011;7934;48.710;9.024;2023-11-21T03:39:58;5.83;;;1.17;;
15667;SDS011;7934;48.710;9.024;2023-11-21T03:42:26;4.10;;;1.30;;
15667;SDS011;7934;48.710;9.024;2023-11-21T03:44:53;1.07;;;0.80;;
15667;SDS011;7934;48.710;9.024;2023-11-21T03:47:20;1.60;;;1.10;;
15667;SDS011;7934;48.710;9.024;2023-11-21T03:49:50;2.87;;;1.17;;
15667;SDS011;7934;48.710;9.024;2023-11-21T03:52:17;2.40;;;0.90;;
15667;SDS011;7934;48.710;9.024;2023-11-21T03:54:45;5.60;;;1.20;;
15667;SDS011;7934;48.710;9.024;2023-11-21T03:57:12;0.93;;;0.93;;
15667;SDS011;7934;48.710;9.024;2023-11-21T03:59:39;2.20;;;1.00;;
15667;SDS011;7934;48.710;9.024;2023-11-21T04:02:07;1.03;;;0.77;;
15667;SDS011;7934;48.710;9.024;2023-11-21T04:04:36;1.00;;;1.00;;
15667;SDS011;7934;48.710;9.024;2023-11-21T04:07:05;0.90;;;0.90;;
15667;SDS011;7934;48.710;9.024;2023-11-21T04:09:32;1.07;;;0.97;;
15667;SDS011;7934;48.710;9.024;2023-11-21T04:12:01;2.90;;;1.10;;
15667;SDS011;7934;48.710;9.024;2023-11-21T04:14:29;2.53;;;1.40;;
15667;SDS011;7934;48.710;9.024;2023-11-21T04:16:56;1.37;;;0.87;;
15667;SDS011;7934;48.710;9.024;2023-11-21T04:19:24;2.10;;;1.10;;
15667;SDS011;7934;48.710;9.024;2023-11-21T04:21:51;1.23;;;1.07;;
15667;SDS011;7934;48.710;9.024;2023-11-21T04:24:21;0.80;;;0.80;;
15667;SDS011;7934;48.710;9.024;2023-11-21T04:26:48;1.40;;;0.80;;
15667;SDS011;7934;48.710;9.024;2023-11-21T04:29:16;2.23;;;1.00;;
15667;SDS011;7934;48.710;9.024;2023-11-21T04:31:43;1.63;;;0.63;;
15667;SDS011;7934;48.710;9.024;2023-11-21T04:34:11;2.73;;;1.10;;
15667;SDS011;7934;48.710;9.024;2023-11-21T04:36:39;1.30;;;1.13;;
15667;SDS011;7934;48.710;9.024;2023-11-21T04:39:07;2.50;;;0.80;;
15667;SDS011;7934;48.710;9.024;2023-11-21T04:41:38;2.57;;;1.00;;
15667;SDS011;7934;48.710;9.024;2023-11-21T04:44:05;1.87;;;1.13;;
15667;SDS011;7934;48.710;9.024;2023-11-21T04:46:33;1.43;;;0.90;;
15667;SDS011;7934;48.710;9.024;2023-11-21T04:49:01;2.60;;;1.00;;
15667;SDS011;7934;48.710;9.024;2023-11-21T04:51:28;4.17;;;1.00;;
15667;SDS011;7934;48.710;9.024;2023-11-21T04:53:57;0.97;;;0.93;;
15667;SDS011;7934;48.710;9.024;2023-11-21T04:56:40;0.83;;;0.73;;
15667;SDS011;7934;48.710;9.024;2023-11-21T04:59:07;3.40;;;1.27;;
15667;SDS011;7934;48.710;9.024;2023-11-21T05:01:39;3.73;;;1.10;;
15667;SDS011;7934;48.710;9.024;2023-11-21T05:04:06;0.77;;;0.77;;
15667;SDS011;7934;48.710;9.024;2023-11-21T05:06:34;6.97;;;1.13;;
15667;SDS011;7934;48.710;9.024;2023-11-21T05:09:03;1.27;;;0.83;;
15667;SDS011;7934;48.710;9.024;2023-11-21T05:11:30;2.40;;;0.97;;
15667;SDS011;7934;48.710;9.024;2023-11-21T05:14:00;3.20;;;1.00;;
15667;SDS011;7934;48.710;9.024;2023-11-21T05:16:30;1.80;;;0.90;;
15667;SDS011;7934;48.710;9.024;2023-11-21T05:18:58;1.43;;;0.83;;
15667;SDS011;7934;48.710;9.024;2023-11-21T05:21:26;0.80;;;0.80;;
15667;SDS011;7934;48.710;9.024;2023-11-21T05:23:54;2.63;;;1.03;;
15667;SDS011;7934;48.710;9.024;2023-11-21T05:26:22;2.47;;;0.87;;
15667;SDS011;7934;48.710;9.024;2023-11-21T05:28:49;2.63;;;1.20;;
15667;SDS011;7934;48.710;9.024;2023-11-21T05:31:21;0.77;;;0.77;;
15667;SDS011;7934;48.710;9.024;2023-11-21T05:33:50;1.33;;;1.23;;
15667;SDS011;7934;48.710;9.024;2023-11-21T05:36:18;7.43;;;1.50;;
15667;SDS011;7934;48.710;9.024;2023-11-21T05:38:46;2.10;;;0.87;;
15667;SDS011;7934;48.710;9.024;2023-11-21T05:41:16;2.57;;;1.00;;
15667;SDS011;7934;48.710;9.024;2023-11-21T05:43:46;1.30;;;1.20;;
15667;SDS011;7934;48.710;9.024;2023-11-21T05:46:13;1.30;;;1.20;;
15667;SDS011;7934;48.710;9.024;2023-11-21T05:48:43;1.40;;;1.17;;
15667;SDS011;7934;48.710;9.024;2023-11-21T05:51:11;3.57;;;1.30;;
15667;SDS011;7934;48.710;9.024;2023-11-21T05:53:43;1.93;;;1.37;;
15667;SDS011;7934;48.710;9.024;2023-11-21T05:56:11;3.13;;;1.40;;
15667;SDS011;7934;48.710;9.024;2023-11-21T05:58:39;1.23;;;1.13;;
15667;SDS011;7934;48.710;9.024;2023-11-21T06:01:07;1.93;;;1.30;;
15667;SDS011;7934;48.710;9.024;2023-11-21T06:03:38;1.30;;;1.13;;
15667;SDS011;7934;48.710;9.024;2023-11-21T06:06:08;2.40;;;1.70;;
15667;SDS011;7934;48.710;9.024;2023-11-21T06:08:34;1.67;;;1.20;;
15667;SDS011;7934;48.710;9.024;2023-11-21T06:11:02;1.80;;;1.33;;
15667;SDS011;7934;48.710;9.024;2023-11-21T06:13:29;2.10;;;1.50;;
15667;SDS011;7934;48.710;9.024;2023-11-21T06:15:57;1.47;;;1.30;;
15667;SDS011;7934;48.710;9.024;2023-11-21T06:18:25;2.57;;;1.60;;
15667;SDS011;7934;48.710;9.024;2023-11-21T06:20:53;1.80;;;1.70;;
15667;SDS011;7934;48.710;9.024;2023-11-21T06:23:27;4.43;;;1.60;;
15667;SDS011;7934;48.710;9.024;2023-11-21T06:25:57;2.60;;;1.60;;
15667;SDS011;7934;48.710;9.024;2023-11-21T06:28:25;1.70;;;1.60;;
15667;SDS011;7934;48.710;9.024;2023-11-21T06:30:52;4.97;;;1.70;;
15667;SDS011;7934;48.710;9.024;2023-11-21T06:33:20;2.70;;;1.50;;
15667;SDS011;7934;48.710;9.024;2023-11-21T06:35:48;3.10;;;1.80;;
15667;SDS011;7934;48.710;9.024;2023-11-21T06:38:16;1.97;;;1.87;;
15667;SDS011;7934;48.710;9.024;2023-11-21T06:40:45;2.20;;;1.83;;
15667;SDS011;7934;48.710;9.024;2023-11-21T06:43:12;4.00;;;2.07;;
15667;SDS011;7934;48.710;9.024;2023-11-21T06:45:40;2.23;;;2.13;;
15667;SDS011;7934;48.710;9.024;2023-11-21T06:48:09;2.13;;;2.03;;
15667;SDS011;7934;48.710;9.024;2023-11-21T06:50:37;4.47;;;1.30;;
15667;SDS011;7934;48.710;9.024;2023-11-21T06:53:04;1.97;;;1.50;;
15667;SDS011;7934;48.710;9.024;2023-11-21T06:55:32;2.20;;;1.50;;
15667;SDS011;7934;48.710;9.024;2023-11-21T06:58:01;1.07;;;1.07;;
15667;SDS011;7934;48.710;9.024;2023-11-21T07:00:30;5.03;;;2.00;;
15667;SDS011;7934;48.710;9.024;2023-11-21T07:02:57;5.30;;;1.30;;
15667;SDS011;7934;48.710;9.024;2023-11-21T07:05:24;1.80;;;1.70;;
15667;SDS011;7934;48.710;9.024;2023-11-21T07:07:52;1.80;;;1.70;;
15667;SDS011;7934;48.710;9.024;2023-11-21T07:10:19;2.92;;;1.90;;
15667;SDS011;7934;48.710;9.024;2023-11-21T07:12:47;3.43;;;3.13;;
15667;SDS011;7934;48.710;9.024;2023-11-21T07:15:18;4.97;;;3.23;;
15667;SDS011;7934;48.710;9.024;2023-11-21T07:17:45;5.75;;;4.90;;
15667;SDS011;7934;48.710;9.024;2023-11-21T07:20:13;6.45;;;4.82;;
15667;SDS011;7934;48.710;9.024;2023-11-21T07:22:42;6.30;;;2.13;;
15667;SDS011;7934;48.710;9.024;2023-11-21T07:25:11;3.87;;;1.83;;
15667;SDS011;7934;48.710;9.024;2023-11-21T07:27:40;3.37;;;1.50;;
15667;SDS011;7934;48.710;9.024;2023-11-21T07:30:10;2.00;;;1.90;;
15667;SDS011;7934;48.710;9.024;2023-11-21T07:32:42;3.28;;;2.38;;
15667;SDS011;7934;48.710;9.024;2023-11-21T07:35:15;2.27;;;1.80;;
15667;SDS011;7934;48.710;9.024;2023-11-21T07:37:43;2.47;;;1.90;;
15667;SDS011;7934;48.710;9.024;2023-11-21T07:40:13;2.20;;;1.97;;
15667;SDS011;7934;48.710;9.024;2023-11-21T07:42:42;6.00;;;2.03;;
15667;SDS011;7934;48.710;9.024;2023-11-21T07:45:09;6.30;;;2.10;;
15667;SDS011;7934;48.710;9.024;2023-11-21T07:47:37;2.70;;;2.40;;
15667;SDS011;7934;48.710;9.024;2023-11-21T07:50:07;2.47;;;2.33;;
15667;SDS011;7934;48.710;9.024;2023-11-21T07:52:35;2.70;;;2.50;;
15667;SDS011;7934;48.710;9.024;2023-11-21T07:55:03;4.50;;;2.57;;
15667;SDS011;7934;48.710;9.024;2023-11-21T07:57:31;2.47;;;2.37;;
15667;SDS011;7934;48.710;9.024;2023-11-21T08:00:01;2.30;;;2.10;;
15667;SDS011;7934;48.710;9.024;2023-11-21T08:02:31;5.27;;;2.50;;
15667;SDS011;7934;48.710;9.024;2023-11-21T08:04:59;2.47;;;2.37;;
15667;SDS011;7934;48.710;9.024;2023-11-21T08:07:37;2.70;;;2.50;;
15667;SDS011;7934;48.710;9.024;2023-11-21T08:10:05;4.00;;;2.97;;
15667;SDS011;7934;48.710;9.024;2023-11-21T08:12:35;3.00;;;2.60;;
15667;SDS011;7934;48.710;9.024;2023-11-21T08:15:04;2.77;;;2.67;;
15667;SDS011;7934;48.710;9.024;2023-11-21T08:17:31;6.77;;;2.40;;
15667;SDS011;7934;48.710;9.024;2023-11-21T08:20:00;2.53;;;2.30;;
15667;SDS011;7934;48.710;9.024;2023-11-21T08:22:31;3.97;;;2.97;;
15667;SDS011;7934;48.710;9.024;2023-11-21T08:24:59;3.13;;;2.20;;
15667;SDS011;7934;48.710;9.024;2023-11-21T08:27:28;2.60;;;2.10;;
15667;SDS011;7934;48.710;9.024;2023-11-21T08:29:59;5.43;;;2.10;;
15667;SDS011;7934;48.710;9.024;2023-11-21T08:32:27;5.40;;;2.13;;
15667;SDS011;7934;48.710;9.024;2023-11-21T08:34:57;6.13;;;2.40;;
15667;SDS011;7934;48.710;9.024;2023-11-21T08:37:27;4.93;;;3.33;;
15667;SDS011;7934;48.710;9.024;2023-11-21T08:39:57;4.57;;;2.60;;
15667;SDS011;7934;48.710;9.024;2023-11-21T08:42:25;2.07;;;1.97;;
15667;SDS011;7934;48.710;9.024;2023-11-21T08:44:55;3.77;;;1.70;;
15667;SDS011;7934;48.710;9.024;2023-11-21T08:47:22;3.30;;;1.77;;
15667;SDS011;7934;48.710;9.024;2023-11-21T08:49:51;1.90;;;1.80;;
15667;SDS011;7934;48.710;9.024;2023-11-21T08:52:19;2.30;;;2.20;;
15667;SDS011;7934;48.710;9.024;2023-11-21T08:54:48;1.60;;;1.50;;
15667;SDS011;7934;48.710;9.024;2023-11-21T08:57:22;4.13;;;2.10;;
15667;SDS011;7934;48.710;9.024;2023-11-21T08:59:49;5.67;;;2.00;;
15667;SDS011;7934;48.710;9.024;2023-11-21T09:02:20;3.60;;;1.80;;
15667;SDS011;7934;48.710;9.024;2023-11-21T09:04:48;2.33;;;1.50;;
15667;SDS011;7934;48.710;9.024;2023-11-21T09:07:16;4.47;;;1.60;;
15667;SDS011;7934;48.710;9.024;2023-11-21T09:09:45;1.60;;;1.57;;
15667;SDS011;7934;48.710;9.024;2023-11-21T09:12:12;2.93;;;1.70;;
15667;SDS011;7934;48.710;9.024;2023-11-21T09:14:41;1.47;;;1.47;;
15667;SDS011;7934;48.710;9.024;2023-11-21T09:17:10;1.90;;;1.60;;
15667;SDS011;7934;48.710;9.024;2023-11-21T09:19:37;2.43;;;2.20;;
15667;SDS011;7934;48.710;9.024;2023-11-21T09:22:05;3.07;;;2.70;;
15667;SDS011;7934;48.710;9.024;2023-11-21T09:24:32;2.67;;;2.47;;
15667;SDS011;7934;48.710;9.024;2023-11-21T09:27:05;3.73;;;2.07;;
15667;SDS011;7934;48.710;9.024;2023-11-21T09:29:33;3.03;;;1.80;;
15667;SDS011;7934;48.710;9.024;2023-11-21T09:32:08;2.20;;;1.80;;
15667;SDS011;7934;48.710;9.024;2023-11-21T09:34:37;9.47;;;2.03;;
15667;SDS011;7934;48.710;9.024;2023-11-21T09:37:07;4.97;;;1.50;;
15667;SDS011;7934;48.710;9.024;2023-11-21T09:39:38;0.45;;;0.32;;
15667;SDS011;7934;48.710;9.024;2023-11-21T09:42:22;0.00;;;0.00;;
15667;SDS011;7934;48.710;9.024;2023-11-21T09:44:54;0.30;;;0.30;;
15667;SDS011;7934;48.710;9.024;2023-11-21T09:47:25;0.33;;;0.33;;
15667;SDS011;7934;48.710;9.024;2023-11-21T09:49:53;2.83;;;0.30;;
15667;SDS011;7934;48.710;9.024;2023-11-21T09:52:26;0.00;;;0.00;;
15667;SDS011;7934;48.710;9.024;2023-11-21T09:54:55;0.07;;;0.07;;
15667;SDS011;7934;48.710;9.024;2023-11-21T09:57:23;2.80;;;1.33;;
15667;SDS011;7934;48.710;9.024;2023-11-21T09:59:52;0.00;;;0.00;;
15667;SDS011;7934;48.710;9.024;2023-11-21T10:02:22;0.30;;;0.30;;
15667;SDS011;7934;48.710;9.024;2023-11-21T10:04:54;0.00;;;0.00;;
15667;SDS011;7934;48.710;9.024;2023-11-21T10:07:23;0.13;;;0.13;;
15667;SDS011;7934;48.710;9.024;2023-11-21T10:09:50;0.00;;;0.00;;
15667;SDS011;7934;48.710;9.024;2023-11-21T10:12:18;3.63;;;0.93;;
15667;SDS011;7934;48.710;9.024;2023-11-21T10:14:47;0.00;;;0.00;;
15667;SDS011;7934;48.710;9.024;2023-11-21T10:17:17;0.10;;;0.10;;
15667;SDS011;7934;48.710;9.024;2023-11-21T10:19:45;0.00;;;0.00;;
15667;SDS011;7934;48.710;9.024;2023-11-21T10:22:17;0.30;;;0.30;;
15667;SDS011;7934;48.710;9.024;2023-11-21T10:24:45;0.17;;;0.17;;
15667;SDS011;7934;48.710;9.024;2023-11-21T10:27:17;0.13;;;0.03;;
15667;SDS011;7934;48.710;9.024;2023-11-21T10:29:46;0.10;;;0.10;;
15667;SDS011;7934;48.710;9.024;2023-11-21T10:32:15;0.10;;;0.10;;
15667;SDS011;7934;48.710;9.024;2023-11-21T10:34:55;0.10;;;0.10;;
15667;SDS011;7934;48.710;9.024;2023-11-21T10:37:24;2.33;;;0.30;;
15667;SDS011;7934;48.710;9.024;2023-11-21T10:39:56;0.00;;;0.00;;
15667;SDS011;7934;48.710;9.024;2023-11-21T10:42:24;0.00;;;0.00;;
15667;SDS011;7934;48.710;9.024;2023-11-21T10:44:52;0.00;;;0.00;;
15667;SDS011;7934;48.710;9.024;2023-11-21T10:47:21;0.32;;;0.32;;
15667;SDS011;7934;48.710;9.024;2023-11-21T10:49:49;0.30;;;0.23;;
15667;SDS011;7934;48.710;9.024;2023-11-21T10:52:20;0.00;;;0.00;;
15667;SDS011;7934;48.710;9.024;2023-11-21T10:54:50;0.20;;;0.20;;
15667;SDS011;7934;48.710;9.024;2023-11-21T10:57:33;0.13;;;0.13;;
15667;SDS011;7934;48.710;9.024;2023-11-21T11:00:01;0.00;;;0.00;;
15667;SDS011;7934;48.710;9.024;2023-11-21T11:02:40;0.30;;;0.30;;
15667;SDS011;7934;48.710;9.024;2023-11-21T11:05:09;0.67;;;0.30;;
15667;SDS011;7934;48.710;9.024;2023-11-21T11:07:37;0.00;;;0.00;;
15667;SDS011;7934;48.710;9.024;2023-11-21T11:10:12;0.00;;;0.00;;
15667;SDS011;7934;48.710;9.024;2023-11-21T11:12:41;0.00;;;0.00;;
15667;SDS011;7934;48.710;9.024;2023-11-21T11:15:13;0.03;;;0.03;;
15667;SDS011;7934;48.710;9.024;2023-11-21T11:17:41;0.00;;;0.00;;
15667;SDS011;7934;48.710;9.024;2023-11-21T11:20:12;0.37;;;0.37;;
15667;SDS011;7934;48.710;9.024;2023-11-21T11:22:46;0.30;;;0.30;;
15667;SDS011;7934;48.710;9.024;2023-11-21T11:25:27;0.00;;;0.00;;
15667;SDS011;7934;48.710;9.024;2023-11-21T11:28:01;0.00;;;0.00;;
15667;SDS011;7934;48.710;9.024;2023-11-21T11:30:35;0.20;;;0.20;;
15667;SDS011;7934;48.710;9.024;2023-11-21T11:33:13;0.10;;;0.10;;
15667;SDS011;7934;48.710;9.024;2023-11-21T11:35:52;0.10;;;0.10;;
15667;SDS011;7934;48.710;9.024;2023-11-21T11:38:23;0.00;;;0.00;;
15667;SDS011;7934;48.710;9.024;2023-11-21T11:40:53;0.20;;;0.20;;
15667;SDS011;7934;48.710;9.024;2023-11-21T11:43:27;0.00;;;0.00;;
15667;SDS011;7934;48.710;9.024;2023-11-21T11:45:56;0.10;;;0.10;;
15667;SDS011;7934;48.710;9.024;2023-11-21T11:48:24;0.20;;;0.10;;
15667;SDS011;7934;48.710;9.024;2023-11-21T11:51:03;0.00;;;0.00;;
15667;SDS011;7934;48.710;9.024;2023-11-21T11:53:35;0.00;;;0.00;;
15667;SDS011;7934;48.710;9.024;2023-11-21T11:56:26;0.03;;;0.03;;
15667;SDS011;7934;48.710;9.024;2023-11-21T11:58:57;0.17;;;0.17;;
15667;SDS011;7934;48.710;9.024;2023-11-21T12:01:25;0.10;;;0.10;;
15667;SDS011;7934;48.710;9.024;2023-11-21T12:06:42;0.00;;;0.00;;
15667;SDS011;7934;48.710;9.024;2023-11-21T12:09:12;1.23;;;0.83;;
15667;SDS011;7934;48.710;9.024;2023-11-21T12:11:49;1.33;;;0.63;;
15667;SDS011;7934;48.710;9.024;2023-11-21T12:14:16;0.30;;;0.30;;
15667;SDS011;7934;48.710;9.024;2023-11-21T12:16:45;0.00;;;0.00;;
15667;SDS011;7934;48.710;9.024;2023-11-21T12:19:13;0.00;;;0.00;;
15667;SDS011;7934;48.710;9.024;2023-11-21T12:21:40;0.00;;;0.00;;
15667;SDS011;7934;48.710;9.024;2023-11-21T12:24:09;0.00;;;0.00;;
15667;SDS011;7934;48.710;9.024;2023-11-21T12:26:38;0.30;;;0.30;;
15667;SDS011;7934;48.710;9.024;2023-11-21T12:29:13;0.20;;;0.20;;
15667;SDS011;7934;48.710;9.024;2023-11-21T12:31:43;0.00;;;0.00;;
15667;SDS011;7934;48.710;9.024;2023-11-21T12:37:10;0.20;;;0.20;;
15667;SDS011;7934;48.710;9.024;2023-11-21T12:39:37;0.10;;;0.10;;
15667;SDS011;7934;48.710;9.024;2023-11-21T12:42:05;0.27;;;0.20;;
15667;SDS011;7934;48.710;9.024;2023-11-21T12:44:35;0.00;;;0.00;;
15667;SDS011;7934;48.710;9.024;2023-11-21T12:47:05;0.00;;;0.00;;
15667;SDS011;7934;48.710;9.024;2023-11-21T12:49:32;0.00;;;0.00;;
15667;SDS011;7934;48.710;9.024;2023-11-21T12:52:01;0.00;;;0.00;;
15667;SDS011;7934;48.710;9.024;2023-11-21T12:54:29;0.00;;;0.00;;
15667;SDS011;7934;48.710;9.024;2023-11-21T12:56:59;0.00;;;0.00;;
15667;SDS011;7934;48.710;9.024;2023-11-21T12:59:26;0.00;;;0.00;;
15667;SDS011;7934;48.710;9.024;2023-11-21T13:01:57;0.20;;;0.20;;
15667;SDS011;7934;48.710;9.024;2023-11-21T13:04:30;0.00;;;0.00;;
15667;SDS011;7934;48.710;9.024;2023-11-21T13:07:04;0.30;;;0.30;;
15667;SDS011;7934;48.710;9.024;2023-11-21T13:09:38;0.00;;;0.00;;
15667;SDS011;7934;48.710;9.024;2023-11-21T13:12:07;0.10;;;0.10;;
15667;SDS011;7934;48.710;9.024;2023-11-21T13:14:35;0.53;;;0.53;;
15667;SDS011;7934;48.710;9.024;2023-11-21T13:17:07;0.00;;;0.00;;
15667;SDS011;7934;48.710;9.024;2023-11-21T13:19:36;0.00;;;0.00;;
15667;SDS011;7934;48.710;9.024;2023-11-21T13:22:04;0.30;;;0.20;;
15667;SDS011;7934;48.710;9.024;2023-11-21T13:24:31;0.00;;;0.00;;
15667;SDS011;7934;48.710;9.024;2023-11-21T13:27:00;0.50;;;0.50;;
15667;SDS011;7934;48.710;9.024;2023-11-21T13:29:28;0.00;;;0.00;;
15667;SDS011;7934;48.710;9.024;2023-11-21T13:31:57;0.27;;;0.27;;
15667;SDS011;7934;48.710;9.024;2023-11-21T13:34:27;0.00;;;0.00;;
15667;SDS011;7934;48.710;9.024;2023-11-21T13:36:57;0.00;;;0.00;;
15667;SDS011;7934;48.710;9.024;2023-11-21T13:39:28;0.20;;;0.20;;
15667;SDS011;7934;48.710;9.024;2023-11-21T13:41:57;1.50;;;0.73;;
15667;SDS011;7934;48.710;9.024;2023-11-21T13:44:28;0.00;;;0.00;;
15667;SDS011;7934;48.710;9.024;2023-11-21T13:47:11;1.27;;;0.90;;
15667;SDS011;7934;48.710;9.024;2023-11-21T13:49:43;0.30;;;0.30;;
15667;SDS011;7934;48.710;9.024;2023-11-21T13:52:15;0.00;;;0.00;;
15667;SDS011;7934;48.710;9.024;2023-11-21T13:54:47;0.00;;;0.00;;
15667;SDS011;7934;48.710;9.024;2023-11-21T13:57:15;2.27;;;0.13;;
15667;SDS011;7934;48.710;9.024;2023-11-21T13:59:45;0.00;;;0.00;;
15667;SDS011;7934;48.710;9.024;2023-11-21T14:02:15;0.00;;;0.00;;
15667;SDS011;7934;48.710;9.024;2023-11-21T14:04:51;0.00;;;0.00;;
15667;SDS011;7934;48.710;9.024;2023-11-21T14:07:35;0.00;;;0.00;;
15667;SDS011;7934;48.710;9.024;2023-11-21T14:10:05;0.03;;;0.03;;
15667;SDS011;7934;48.710;9.024;2023-11-21T14:12:38;0.00;;;0.00;;
15667;SDS011;7934;48.710;9.024;2023-11-21T14:15:08;0.00;;;0.00;;
15667;SDS011;7934;48.710;9.024;2023-11-21T14:17:42;0.00;;;0.00;;
15667;SDS011;7934;48.710;9.024;2023-11-21T14:20:13;0.10;;;0.10;;
15667;SDS011;7934;48.710;9.024;2023-11-21T14:22:44;0.00;;;0.00;;
15667;SDS011;7934;48.710;9.024;2023-11-21T14:25:12;0.00;;;0.00;;
15667;SDS011;7934;48.710;9.024;2023-11-21T14:27:50;0.00;;;0.00;;
15667;SDS011;7934;48.710;9.024;2023-11-21T14:30:22;0.00;;;0.00;;
15667;SDS011;7934;48.710;9.024;2023-11-21T14:32:52;0.00;;;0.00;;
15667;SDS011;7934;48.710;9.024;2023-11-21T14:35:21;0.00;;;0.00;;
15667;SDS011;7934;48.710;9.024;2023-11-21T14:37:50;0.00;;;0.00;;
15667;SDS011;7934;48.710;9.024;2023-11-21T14:40:18;0.00;;;0.00;;
15667;SDS011;7934;48.710;9.024;2023-11-21T14:42:51;0.10;;;0.10;;
15667;SDS011;7934;48.710;9.024;2023-11-21T14:45:22;0.00;;;0.00;;
15667;SDS011;7934;48.710;9.024;2023-11-21T14:47:51;0.30;;;0.30;;
15667;SDS011;7934;48.710;9.024;2023-11-21T14:50:34;0.00;;;0.00;;
15667;SDS011;7934;48.710;9.024;2023-11-21T14:53:18;0.07;;;0.07;;
15667;SDS011;7934;48.710;9.024;2023-11-21T14:56:07;0.00;;;0.00;;
15667;SDS011;7934;48.710;9.024;2023-11-21T14:58:34;0.00;;;0.00;;
15667;SDS011;7934;48.710;9.024;2023-11-21T15:01:04;0.53;;;0.53;;
15667;SDS011;7934;48.710;9.024;2023-11-21T15:03:33;0.00;;;0.00;;
15667;SDS011;7934;48.710;9.024;2023-11-21T15:08:56;0.20;;;0.20;;
15667;SDS011;7934;48.710;9.024;2023-11-21T15:11:37;0.07;;;0.07;;
15667;SDS011;7934;48.710;9.024;2023-11-21T15:14:06;0.17;;;0.17;;
15667;SDS011;7934;48.710;9.024;2023-11-21T15:16:34;0.00;;;0.00;;
15667;SDS011;7934;48.710;9.024;2023-11-21T15:19:05;0.00;;;0.00;;
15667;SDS011;7934;48.710;9.024;2023-11-21T15:21:34;2.77;;;0.53;;
15667;SDS011;7934;48.710;9.024;2023-11-21T15:24:04;0.30;;;0.30;;